Time;durP1;ratioP1;P1;durP2;ratioP2;P2;SDS_P1;SDS_P2;PMS_P1;PMS_P2;Temp;Humidity;BMP_temperature;BMP_pressure;BME280_temperature;BME280_humidity;BME280_pressure;Samples;Min_cycle;Max_cycle;Signal;HPM_P1;HPM_P2
2022/07/29 00:02:05;;;;;;;0.40;0.40;;;18.70;99.90;;;;;;5013450;28;20422;-84
2022/07/29 00:04:30;;;;;;;0.40;0.20;;;18.60;99.90;;;;;;5013782;28;20018;-83
2022/07/29 00:06:56;;;;;;;0.65;0.55;;;18.60;99.90;;;;;;4995935;28;20022;-83
2022/07/29 00:09:22;;;;;;;0.57;0.25;;;18.60;99.90;;;;;;4995921;28;20025;-83
2022/07/29 00:11:48;;;;;;;0.80;0.68;;;18.60;99.90;;;;;;4995579;28;20030;-82
2022/07/29 00:14:13;;;;;;;0.57;0.57;;;18.50;99.90;;;;;;4995771;28;20121;-80
2022/07/29 00:16:39;;;;;;;0.20;0.20;;;18.50;99.90;;;;;;5013099;28;20056;-82
2022/07/29 00:19:05;;;;;;;0.28;0.28;;;18.50;99.90;;;;;;4995816;28;20033;-82
2022/07/29 00:21:31;;;;;;;0.93;0.93;;;18.50;99.90;;;;;;4995904;28;20057;-82
2022/07/29 00:23:57;;;;;;;1.05;0.95;;;18.50;99.90;;;;;;4995829;28;20060;-82
2022/07/29 00:26:22;;;;;;;0.28;0.28;;;18.60;99.90;;;;;;5013090;28;20026;-80
2022/07/29 00:28:48;;;;;;;0.63;0.60;;;18.60;99.90;;;;;;4995335;28;20022;-81
2022/07/29 00:31:14;;;;;;;1.83;0.73;;;18.60;99.90;;;;;;5013139;28;20040;-80
2022/07/29 00:33:39;;;;;;;1.30;1.08;;;18.60;99.90;;;;;;5013063;28;20033;-81
2022/07/29 00:36:05;;;;;;;0.65;0.50;;;18.70;99.90;;;;;;4995442;28;20022;-80
2022/07/29 00:38:31;;;;;;;1.20;1.20;;;18.70;99.90;;;;;;5013043;28;20101;-80
2022/07/29 00:40:57;;;;;;;0.95;0.93;;;18.70;99.90;;;;;;5012994;28;20105;-81
2022/07/29 00:43:22;;;;;;;0.38;0.38;;;18.70;99.90;;;;;;5013094;28;20026;-81
2022/07/29 00:45:48;;;;;;;2.90;0.75;;;18.70;99.90;;;;;;4995314;28;20054;-81
2022/07/29 00:48:14;;;;;;;0.38;0.38;;;18.70;99.90;;;;;;5013144;28;20475;-86
2022/07/29 00:50:39;;;;;;;0.30;0.30;;;18.70;99.90;;;;;;4995483;28;20301;-81
2022/07/29 00:53:08;;;;;;;0.30;0.30;;;18.70;99.90;;;;;;4997303;28;20030;-83
2022/07/29 00:55:35;;;;;;;1.02;0.80;;;18.50;99.90;;;;;;5016836;28;20017;-85
2022/07/29 00:58:01;;;;;;;0.20;0.20;;;18.40;99.90;;;;;;4999374;28;20040;-84
2022/07/29 01:00:28;;;;;;;0.40;0.40;;;18.40;99.90;;;;;;5016736;28;20022;-85
2022/07/29 01:02:53;;;;;;;0.70;0.70;;;18.20;99.90;;;;;;4998934;28;20120;-83
2022/07/29 01:05:22;;;;;;;0.43;0.43;;;18.20;99.90;;;;;;4998663;28;20112;-82
2022/07/29 01:07:52;;;;;;;0.55;0.43;;;18.10;99.90;;;;;;5016047;28;20105;-81
2022/07/29 01:10:19;;;;;;;0.43;0.30;;;18.00;99.90;;;;;;5015964;28;20061;-84
2022/07/29 01:12:49;;;;;;;0.40;0.40;;;17.90;99.90;;;;;;4998995;28;20046;-85
2022/07/29 01:15:15;;;;;;;0.52;0.52;;;17.80;99.90;;;;;;5016425;28;20120;-87
2022/07/29 01:18:26;;;;;;;0.68;0.68;;;17.80;99.90;;;;;;4999176;28;20068;-86
2022/07/29 01:21:33;;;;;;;2.15;0.63;;;17.80;99.90;;;;;;4986210;28;20073;-87
2022/07/29 01:24:46;;;;;;;0.50;0.50;;;17.80;99.90;;;;;;5014410;28;20398;-86
2022/07/29 01:27:35;;;;;;;0.40;0.40;;;17.80;99.90;;;;;;4999457;28;20049;-87
2022/07/29 01:30:02;;;;;;;0.47;0.47;;;16.00;99.90;;;;;;5005541;28;20062;-84
2022/07/29 01:32:32;;;;;;;2.38;0.40;;;17.80;99.90;;;;;;5016373;28;20410;-83
2022/07/29 01:35:14;;;;;;;2.03;0.50;;;17.90;99.90;;;;;;4998585;28;20022;-80
2022/07/29 01:38:01;;;;;;;0.32;0.32;;;17.80;99.90;;;;;;5016107;28;20030;-85
2022/07/29 01:40:47;;;;;;;0.50;0.50;;;17.80;99.90;;;;;;4999159;28;20033;-82
2022/07/29 01:43:20;;;;;;;0.38;0.38;;;17.70;99.90;;;;;;4998432;28;20037;-86
2022/07/29 01:45:51;;;;;;;2.63;1.15;;;17.50;99.90;;;;;;5015786;28;20081;-87
2022/07/29 01:48:22;;;;;;;0.63;0.63;;;17.40;99.90;;;;;;5015520;28;20037;-87
2022/07/29 01:50:58;;;;;;;0.40;0.30;;;17.20;99.90;;;;;;4998215;28;20113;-87
2022/07/29 01:53:38;;;;;;;1.27;1.05;;;17.10;99.90;;;;;;4998220;28;20026;-86
2022/07/29 01:56:06;;;;;;;4.15;1.48;;;17.00;99.90;;;;;;4998393;28;20044;-83
2022/07/29 01:58:35;;;;;;;1.98;1.08;;;17.00;99.90;;;;;;4998072;28;20030;-87
2022/07/29 02:01:02;;;;;;;0.65;0.65;;;16.90;99.90;;;;;;4998122;28;20121;-85
2022/07/29 02:03:30;;;;;;;1.30;1.30;;;16.90;99.90;;;;;;4997391;28;20021;-84
2022/07/29 02:05:56;;;;;;;0.77;0.77;;;17.00;99.90;;;;;;4997472;28;20025;-85
2022/07/29 02:08:23;;;;;;;5.97;2.85;;;16.90;99.90;;;;;;5015604;28;20418;-86
2022/07/29 02:10:51;;;;;;;1.20;0.55;;;17.00;99.90;;;;;;4998195;28;20076;-86
2022/07/29 02:13:19;;;;;;;2.97;1.05;;;17.00;99.90;;;;;;4998169;28;20109;-86
2022/07/29 02:15:47;;;;;;;1.13;1.13;;;17.00;99.90;;;;;;4997777;28;20498;-86
2022/07/29 02:18:18;;;;;;;0.68;0.68;;;16.90;99.90;;;;;;4997655;28;20284;-84
2022/07/29 02:20:49;;;;;;;11.63;1.50;;;16.80;99.90;;;;;;5015420;28;20026;-85
2022/07/29 02:23:19;;;;;;;0.55;0.55;;;16.80;99.90;;;;;;4997587;28;20030;-87
2022/07/29 02:25:52;;;;;;;2.25;1.17;;;16.90;99.90;;;;;;5014934;28;20474;-83
2022/07/29 02:28:20;;;;;;;1.63;0.93;;;16.90;99.90;;;;;;5015279;28;20058;-86
2022/07/29 02:30:47;;;;;;;4.32;1.38;;;16.60;99.90;;;;;;5014932;28;20021;-85
2022/07/29 02:33:15;;;;;;;0.85;0.85;;;16.50;99.90;;;;;;4997600;28;20032;-84
2022/07/29 02:35:42;;;;;;;1.20;1.15;;;16.50;99.90;;;;;;4997402;28;20022;-85
2022/07/29 02:40:58;;;;;;;1.23;0.73;;;16.60;99.90;;;;;;5015074;28;20072;-84
2022/07/29 02:43:25;;;;;;;1.25;1.25;;;16.50;99.90;;;;;;4997456;28;20072;-86
2022/07/29 02:45:54;;;;;;;1.02;1.02;;;16.40;99.90;;;;;;4997488;28;20486;-84
2022/07/29 02:48:27;;;;;;;1.63;1.48;;;16.40;99.90;;;;;;4997064;28;20433;-87
2022/07/29 02:51:06;;;;;;;1.17;1.10;;;16.50;99.90;;;;;;4997166;28;20059;-86
2022/07/29 02:53:34;;;;;;;0.60;0.60;;;16.50;99.90;;;;;;5015066;28;20038;-86
2022/07/29 02:56:13;;;;;;;1.75;1.08;;;17.70;99.90;;;;;;4996943;28;20088;-86
2022/07/29 02:58:50;;;;;;;0.77;0.77;;;;;;;;;;4997220;28;20069;-87
2022/07/29 03:01:20;;;;;;;3.90;1.08;;;16.50;99.90;;;;;;4997200;28;20143;-88
2022/07/29 03:03:47;;;;;;;0.75;0.75;;;16.50;99.90;;;;;;4997225;28;20022;-86
2022/07/29 03:06:15;;;;;;;0.75;0.75;;;16.50;99.90;;;;;;4997207;28;20029;-85
2022/07/29 03:08:42;;;;;;;1.30;0.47;;;16.50;99.90;;;;;;4997152;28;20030;-88
2022/07/29 03:11:09;;;;;;;0.90;0.90;;;16.50;99.90;;;;;;4996950;28;20080;-87
2022/07/29 03:13:36;;;;;;;1.35;1.25;;;16.30;99.90;;;;;;5014456;28;20030;-86
2022/07/29 03:16:02;;;;;;;1.10;1.10;;;16.30;99.90;;;;;;4996722;28;20042;-88
2022/07/29 03:18:28;;;;;;;0.88;0.88;;;16.20;99.90;;;;;;4997089;28;20107;-87
2022/07/29 03:20:55;;;;;;;0.85;0.85;;;16.30;99.90;;;;;;5014372;28;20033;-89
2022/07/29 03:23:23;;;;;;;5.35;2.05;;;16.30;99.90;;;;;;5014492;28;20096;-89
2022/07/29 03:25:52;;;;;;;0.70;0.70;;;16.30;99.90;;;;;;4996830;28;20033;-87
2022/07/29 03:28:19;;;;;;;4.35;1.20;;;16.40;99.90;;;;;;4996641;28;20562;-88
2022/07/29 03:30:45;;;;;;;0.73;0.73;;;16.40;99.90;;;;;;5014287;28;20065;-87
2022/07/29 03:33:10;;;;;;;0.50;0.50;;;16.30;99.90;;;;;;4996895;28;20068;-88
2022/07/29 03:35:36;;;;;;;1.60;1.50;;;16.30;99.90;;;;;;4997068;28;20089;-88
2022/07/29 03:38:03;;;;;;;1.20;1.10;;;16.40;99.90;;;;;;5014698;28;20034;-87
2022/07/29 03:40:51;;;;;;;3.90;1.35;;;16.40;99.90;;;;;;4996766;28;20100;-87
2022/07/29 03:43:18;;;;;;;1.52;0.63;;;16.40;99.90;;;;;;4996669;28;20036;-88
2022/07/29 03:45:47;;;;;;;1.05;0.95;;;16.40;99.90;;;;;;4996586;28;20044;-87
2022/07/29 03:48:17;;;;;;;0.77;0.77;;;16.50;99.90;;;;;;4996585;28;20394;-86
2022/07/29 03:50:43;;;;;;;1.92;1.23;;;16.50;99.90;;;;;;4996501;28;20113;-87
2022/07/29 03:53:10;;;;;;;0.68;0.68;;;16.40;99.90;;;;;;4996519;28;20071;-88
2022/07/29 03:55:44;;;;;;;0.75;0.75;;;16.50;99.90;;;;;;4996499;28;20018;-88
2022/07/29 03:58:13;;;;;;;1.08;1.02;;;16.50;99.90;;;;;;5014042;28;20505;-88
2022/07/29 04:00:39;;;;;;;1.10;1.10;;;16.40;99.90;;;;;;4996461;28;20026;-87
2022/07/29 04:03:05;;;;;;;0.68;0.68;;;16.40;99.90;;;;;;4996442;28;20061;-87
2022/07/29 04:05:31;;;;;;;0.88;0.88;;;16.50;99.90;;;;;;4996431;28;20022;-86
2022/07/29 04:07:57;;;;;;;1.60;1.15;;;16.50;99.90;;;;;;4996372;28;20049;-88
2022/07/29 04:10:25;;;;;;;0.60;0.60;;;16.50;99.90;;;;;;5013868;28;20026;-88
2022/07/29 04:12:51;;;;;;;0.60;0.60;;;16.50;99.90;;;;;;4996265;28;20038;-88
2022/07/29 04:15:17;;;;;;;1.20;0.90;;;16.50;99.90;;;;;;5013801;28;20028;-88
2022/07/29 04:17:42;;;;;;;1.02;0.63;;;16.50;99.90;;;;;;5013836;28;20054;-87
2022/07/29 04:20:09;;;;;;;1.83;0.98;;;16.50;99.90;;;;;;4996354;28;20463;-88
2022/07/29 04:22:35;;;;;;;1.58;1.30;;;16.50;99.90;;;;;;5008018;28;20026;-87
2022/07/29 04:25:00;;;;;;;1.00;0.90;;;16.60;99.90;;;;;;4996262;28;20514;-88
2022/07/29 04:27:26;;;;;;;2.55;1.63;;;16.60;99.90;;;;;;4997071;28;20048;-88
2022/07/29 04:29:51;;;;;;;0.95;0.95;;;16.60;99.90;;;;;;5017249;28;20060;-87
2022/07/29 04:32:17;;;;;;;2.35;1.45;;;16.60;99.90;;;;;;4999851;28;20088;-88
2022/07/29 04:34:45;;;;;;;0.60;0.60;;;16.50;99.90;;;;;;5017359;28;20018;-87
2022/07/29 04:37:10;;;;;;;1.95;0.73;;;16.50;99.90;;;;;;4999872;28;20026;-87
2022/07/29 04:39:36;;;;;;;5.07;1.45;;;16.50;99.90;;;;;;5017390;28;20036;-87
2022/07/29 04:42:02;;;;;;;0.93;0.93;;;16.50;99.90;;;;;;4999655;28;20061;-87
2022/07/29 04:44:28;;;;;;;0.65;0.65;;;16.60;99.90;;;;;;4999717;28;20050;-86
2022/07/29 04:46:54;;;;;;;0.98;0.98;;;16.60;99.90;;;;;;4999830;28;20029;-87
2022/07/29 04:49:19;;;;;;;5.07;0.98;;;16.60;99.90;;;;;;4999473;28;20387;-87
2022/07/29 04:51:45;;;;;;;2.03;0.75;;;16.70;99.90;;;;;;4999533;28;20034;-87
2022/07/29 04:54:11;;;;;;;1.27;0.88;;;16.80;99.90;;;;;;4999538;28;20430;-88
2022/07/29 04:56:36;;;;;;;0.77;0.77;;;17.00;99.90;;;;;;4999837;28;20490;-84
2022/07/29 04:59:02;;;;;;;1.08;1.08;;;17.00;99.90;;;;;;4999062;28;20018;-86
2022/07/29 05:01:27;;;;;;;1.10;1.10;;;17.00;99.90;;;;;;5016753;28;20029;-87
2022/07/29 05:03:53;;;;;;;1.00;1.00;;;17.10;99.90;;;;;;5016571;28;20026;-86
2022/07/29 05:06:19;;;;;;;3.20;0.93;;;17.20;99.90;;;;;;5016819;28;20018;-87
2022/07/29 05:08:44;;;;;;;1.17;1.17;;;17.30;99.90;;;;;;5016792;28;20109;-86
2022/07/29 05:11:10;;;;;;;1.50;1.40;;;17.30;99.90;;;;;;4999601;28;20475;-87
2022/07/29 05:13:36;;;;;;;1.65;0.90;;;17.30;99.90;;;;;;4999552;28;20033;-85
2022/07/29 05:16:02;;;;;;;0.50;0.50;;;17.30;99.90;;;;;;5016168;28;20472;-87
2022/07/29 05:18:28;;;;;;;0.85;0.70;;;17.50;99.90;;;;;;4999354;28;20026;-86
2022/07/29 05:20:53;;;;;;;1.27;0.90;;;17.60;99.90;;;;;;4998790;28;20108;-85
2022/07/29 05:23:19;;;;;;;4.03;1.27;;;17.70;99.90;;;;;;4998546;28;20181;-85
2022/07/29 05:25:46;;;;;;;1.13;1.13;;;17.80;99.90;;;;;;5016515;28;20030;-86
2022/07/29 05:28:11;;;;;;;2.22;1.25;;;17.90;99.90;;;;;;4999121;28;20026;-85
2022/07/29 05:30:37;;;;;;;2.42;1.42;;;17.90;99.90;;;;;;5016407;28;20037;-86
2022/07/29 05:33:03;;;;;;;0.98;0.98;;;18.10;99.90;;;;;;4998725;28;20119;-85
2022/07/29 05:35:29;;;;;;;0.65;0.65;;;18.10;99.90;;;;;;5016236;28;20076;-86
2022/07/29 05:37:54;;;;;;;7.30;1.02;;;18.20;99.90;;;;;;4998277;28;20026;-86
2022/07/29 05:40:20;;;;;;;0.60;0.60;;;18.30;99.90;;;;;;4998857;28;20382;-86
2022/07/29 05:42:46;;;;;;;0.65;0.65;;;18.40;99.90;;;;;;4998596;28;20026;-86
2022/07/29 05:45:14;;;;;;;2.20;1.05;;;18.40;99.90;;;;;;4998789;28;20038;-86
2022/07/29 05:47:40;;;;;;;0.60;0.60;;;21.70;99.90;;;;;;5015991;28;20510;-85
2022/07/29 05:50:06;;;;;;;0.60;0.60;;;18.50;99.90;;;;;;5016049;28;20034;-86
2022/07/29 05:52:32;;;;;;;1.48;0.70;;;18.50;99.90;;;;;;5015842;28;20026;-86
2022/07/29 05:54:58;;;;;;;0.95;0.88;;;18.50;99.90;;;;;;4998096;28;20029;-85
2022/07/29 05:57:24;;;;;;;1.45;0.90;;;18.40;99.90;;;;;;5015629;28;20029;-85
2022/07/29 05:59:51;;;;;;;0.50;0.50;;;18.40;99.90;;;;;;5015645;28;20029;-85
2022/07/29 06:02:17;;;;;;;0.70;0.70;;;18.50;99.90;;;;;;5015934;28;20025;-85
2022/07/29 06:04:43;;;;;;;1.95;0.95;;;18.60;99.90;;;;;;4998328;28;20026;-86
2022/07/29 06:07:09;;;;;;;2.17;1.13;;;18.90;99.90;;;;;;5015658;28;20493;-86
2022/07/29 06:09:35;;;;;;;0.63;0.63;;;19.10;99.90;;;;;;4998359;28;20026;-87
2022/07/29 06:12:01;;;;;;;0.60;0.60;;;19.20;99.90;;;;;;5015280;28;20044;-87
2022/07/29 06:14:28;;;;;;;0.82;0.82;;;19.30;99.90;;;;;;4997929;28;20548;-88
2022/07/29 06:16:54;;;;;;;0.77;0.77;;;19.30;99.90;;;;;;4997942;28;20045;-87
2022/07/29 06:19:19;;;;;;;2.25;0.98;;;19.50;99.90;;;;;;4998054;28;20053;-88
2022/07/29 06:21:46;;;;;;;2.50;0.90;;;19.50;99.90;;;;;;4998087;28;20124;-88
2022/07/29 06:24:13;;;;;;;0.57;0.57;;;19.60;99.90;;;;;;4998081;28;20026;-88
2022/07/29 06:26:42;;;;;;;3.92;0.90;;;19.70;99.90;;;;;;4998157;28;20026;-89
2022/07/29 06:29:10;;;;;;;1.23;1.05;;;19.80;99.90;;;;;;4999270;28;20120;-90
2022/07/29 06:31:36;;;;;;;0.90;0.50;;;19.90;99.90;;;;;;4999713;28;20037;-89
2022/07/29 06:34:03;;;;;;;0.68;0.65;;;19.90;99.90;;;;;;5016790;28;20033;-89
2022/07/29 06:36:28;;;;;;;1.33;1.20;;;19.80;99.90;;;;;;5016188;28;20024;-90
2022/07/29 06:38:54;;;;;;;0.55;0.55;;;19.70;99.90;;;;;;4997898;28;20025;-88
2022/07/29 06:41:19;;;;;;;1.30;0.88;;;19.60;99.90;;;;;;4997899;28;20026;-88
2022/07/29 06:43:46;;;;;;;3.92;1.55;;;19.60;99.90;;;;;;4997625;28;20022;-88
2022/07/29 06:46:20;;;;;;;0.60;0.60;;;19.50;99.90;;;;;;4997494;28;20163;-86
2022/07/29 06:48:47;;;;;;;0.82;0.82;;;19.50;99.90;;;;;;4997465;28;20109;-86
2022/07/29 06:51:13;;;;;;;2.65;0.88;;;19.50;99.90;;;;;;4996939;28;20041;-86
2022/07/29 06:53:39;;;;;;;2.15;1.33;;;19.40;99.90;;;;;;5014714;28;20533;-86
2022/07/29 06:56:08;;;;;;;0.73;0.73;;;19.60;99.90;;;;;;5014930;28;20022;-86
2022/07/29 06:58:34;;;;;;;0.82;0.82;;;19.60;99.90;;;;;;5014778;28;20042;-78
2022/07/29 07:01:02;;;;;;;0.82;0.77;;;19.70;99.90;;;;;;5014269;28;20033;-78
2022/07/29 07:03:28;;;;;;;1.20;0.60;;;19.70;99.90;;;;;;5014082;28;20470;-77
2022/07/29 07:05:54;;;;;;;0.70;0.70;;;19.70;99.90;;;;;;4996015;28;20085;-78
2022/07/29 07:08:21;;;;;;;0.70;0.70;;;19.70;99.90;;;;;;4995858;28;20459;-79
2022/07/29 07:10:48;;;;;;;0.82;0.82;;;19.60;99.90;;;;;;5013516;28;20080;-79
2022/07/29 07:13:14;;;;;;;0.75;0.75;;;19.60;99.90;;;;;;5013742;28;20034;-79
2022/07/29 07:15:40;;;;;;;0.88;0.70;;;19.70;99.90;;;;;;4995881;28;20042;-77
2022/07/29 07:18:07;;;;;;;0.95;0.95;;;19.80;99.90;;;;;;5013746;28;20026;-80
2022/07/29 07:20:33;;;;;;;0.40;0.40;;;19.80;99.90;;;;;;5013759;28;20022;-78
2022/07/29 07:22:59;;;;;;;0.40;0.40;;;19.90;99.90;;;;;;5013524;28;20053;-80
2022/07/29 07:25:25;;;;;;;1.92;1.80;;;20.00;99.90;;;;;;5013861;28;20025;-88
2022/07/29 07:27:51;;;;;;;2.30;1.65;;;20.00;99.90;;;;;;4996219;28;20028;-83
2022/07/29 07:30:17;;;;;;;2.13;0.98;;;20.00;99.90;;;;;;5014064;28;20060;-80
2022/07/29 07:32:42;;;;;;;1.55;1.15;;;20.00;99.90;;;;;;4995788;28;20049;-80
2022/07/29 07:35:10;;;;;;;0.77;0.63;;;19.90;99.90;;;;;;4996551;28;20033;-80
2022/07/29 07:37:36;;;;;;;2.67;0.93;;;20.00;99.90;;;;;;4998664;28;20026;-79
2022/07/29 07:40:03;;;;;;;1.10;0.30;;;20.00;99.90;;;;;;5015685;28;20060;-81
2022/07/29 07:42:28;;;;;;;0.82;0.82;;;19.90;99.90;;;;;;5012917;28;20036;-75
2022/07/29 07:44:54;;;;;;;5.88;1.17;;;19.90;99.90;;;;;;4995447;28;20023;-76
2022/07/29 07:47:20;;;;;;;2.20;1.08;;;19.90;99.90;;;;;;5013303;28;20030;-76
2022/07/29 07:49:47;;;;;;;0.50;0.50;;;19.90;99.90;;;;;;5013283;28;20022;-76
2022/07/29 07:52:13;;;;;;;6.50;0.90;;;19.90;99.90;;;;;;5013252;28;20026;-77
2022/07/29 07:54:39;;;;;;;0.65;0.65;;;19.90;99.90;;;;;;5013255;28;20057;-76
2022/07/29 07:57:05;;;;;;;1.00;0.80;;;20.30;99.90;;;;;;5013084;28;20069;-78
2022/07/29 07:59:30;;;;;;;2.10;1.63;;;20.60;99.90;;;;;;5012997;28;20415;-78
2022/07/29 08:01:56;;;;;;;2.90;1.00;;;20.80;99.90;;;;;;4995322;28;20458;-77
2022/07/29 08:04:22;;;;;;;1.10;0.55;;;21.40;99.90;;;;;;5016643;28;20506;-77
2022/07/29 08:06:49;;;;;;;0.60;0.60;;;21.40;99.90;;;;;;5016609;28;20368;-78
2022/07/29 08:09:15;;;;;;;0.55;0.40;;;22.80;99.90;;;;;;5016563;28;20064;-77
2022/07/29 08:11:41;;;;;;;1.10;0.85;;;22.70;99.90;;;;;;5016596;28;20093;-77
2022/07/29 08:14:06;;;;;;;1.20;0.57;;;22.90;99.90;;;;;;5016875;28;20022;-81
2022/07/29 08:16:32;;;;;;;1.30;1.20;;;23.20;99.90;;;;;;4999227;28;20045;-78
2022/07/29 08:18:58;;;;;;;0.30;0.30;;;23.20;99.90;;;;;;4999094;28;20061;-80
2022/07/29 08:21:24;;;;;;;0.40;0.40;;;23.30;99.90;;;;;;5016804;28;20022;-83
2022/07/29 08:24:42;;;;;;;0.55;0.45;;;23.30;99.90;;;;;;5000232;28;20494;-88
2022/07/29 08:26:41;;;;;;;1.90;0.35;;;23.40;99.90;;;;;;5017539;28;20030;-87
2022/07/29 08:29:06;;;;;;;1.02;0.38;;;23.40;99.90;;;;;;4999768;28;20026;-83
2022/07/29 08:31:32;;;;;;;1.65;0.70;;;23.40;99.90;;;;;;5017017;28;20112;-82
2022/07/29 08:33:59;;;;;;;0.43;0.43;;;24.30;99.90;;;;;;5017047;28;20034;-90
2022/07/29 08:36:25;;;;;;;0.63;0.32;;;24.30;99.90;;;;;;4999795;28;20042;-87
2022/07/29 08:38:51;;;;;;;0.28;0.28;;;24.90;99.90;;;;;;5017473;28;20025;-85
2022/07/29 08:41:19;;;;;;;1.52;0.55;;;25.70;99.90;;;;;;5017835;28;20033;-86
2022/07/29 08:43:45;;;;;;;0.43;0.40;;;25.70;99.90;;;;;;5017586;28;20384;-85
2022/07/29 08:46:11;;;;;;;0.68;0.68;;;25.60;99.90;;;;;;5017273;28;20479;-87
2022/07/29 08:48:40;;;;;;;0.20;0.20;;;25.30;99.90;;;;;;5017621;28;20022;-86
2022/07/29 08:51:07;;;;;;;0.98;0.75;;;24.90;99.90;;;;;;4999342;28;20066;-82
2022/07/29 08:53:34;;;;;;;0.25;0.25;;;25.00;99.90;;;;;;5016969;28;20026;-88
2022/07/29 08:56:01;;;;;;;1.00;0.75;;;25.40;99.90;;;;;;4999467;28;20471;-79
2022/07/29 08:58:31;;;;;;;0.13;0.13;;;25.40;99.90;;;;;;5017218;28;20026;-85
2022/07/29 09:01:01;;;;;;;0.35;0.35;;;25.80;99.90;;;;;;5016731;28;20030;-85
2022/07/29 09:03:29;;;;;;;;;;;25.90;99.90;;;;;;5017443;28;20052;-85
2022/07/29 09:05:55;;;;;;;0.50;0.50;;;26.10;99.90;;;;;;5016937;28;19912;-85
2022/07/29 09:08:21;;;;;;;0.50;0.50;;;26.90;99.90;;;;;;4999212;28;20613;-87
2022/07/29 09:10:47;;;;;;;0.50;0.50;;;27.60;99.90;;;;;;4999253;28;20076;-86
2022/07/29 09:13:13;;;;;;;0.25;0.20;;;29.00;94.20;;;;;;4998660;28;20136;-82
2022/07/29 09:15:39;;;;;;;0.20;0.20;;;30.50;71.50;;;;;;5016476;28;20073;-89
2022/07/29 09:18:04;;;;;;;6.20;1.95;;;30.50;72.80;;;;;;5016587;28;20030;-86
2022/07/29 09:21:57;;;;;;;1.00;0.43;;;31.40;67.20;;;;;;5016928;28;20064;-88
2022/07/29 09:23:16;;;;;;;0.32;0.32;;;32.30;62.30;;;;;;5016486;28;20018;-87
2022/07/29 09:25:42;;;;;;;1.85;0.20;;;32.40;62.60;;;;;;5000070;28;20080;-84
2022/07/29 09:28:10;;;;;;;0.52;0.52;;;31.70;60.40;;;;;;5025759;28;20026;-87
2022/07/29 09:30:53;;;;;;;0.30;0.30;;;31.00;61.70;;;;;;5002818;28;20466;-83
2022/07/29 09:33:20;;;;;;;0.30;0.30;;;30.60;61.80;;;;;;5016034;28;20069;-81
2022/07/29 09:35:46;;;;;;;0.35;0.35;;;30.50;59.50;;;;;;5016403;28;20014;-80
2022/07/29 09:38:13;;;;;;;0.40;0.30;;;30.80;61.30;;;;;;5015518;28;20036;-80
2022/07/29 09:40:39;;;;;;;0.73;0.40;;;31.20;60.30;;;;;;4997951;28;20053;-80
2022/07/29 09:43:13;;;;;;;0.85;0.47;;;31.50;59.70;;;;;;5015446;28;20022;-81
2022/07/29 09:45:39;;;;;;;0.10;0.10;;;31.00;59.10;;;;;;5015392;28;20084;-81
2022/07/29 09:48:17;;;;;;;0.85;0.30;;;30.60;59.40;;;;;;5015380;28;20026;-80
2022/07/29 09:50:44;;;;;;;0.20;0.20;;;30.30;58.90;;;;;;5015335;28;20034;-81
2022/07/29 09:53:11;;;;;;;0.30;0.30;;;30.30;57.80;;;;;;5015231;28;20026;-80
2022/07/29 09:55:50;;;;;;;0.10;0.10;;;30.40;57.50;;;;;;5015236;28;20056;-80
2022/07/29 09:58:21;;;;;;;0.10;0.10;;;29.30;59.00;;;;;;5015198;28;20093;-79
2022/07/29 10:00:49;;;;;;;1.00;0.55;;;28.70;59.30;;;;;;4997703;28;20032;-80
2022/07/29 10:03:16;;;;;;;2.45;1.33;;;28.50;56.70;;;;;;5015109;28;20032;-80
2022/07/29 10:05:43;;;;;;;0.15;0.15;;;28.70;57.80;;;;;;4997332;28;20513;-80
2022/07/29 10:08:10;;;;;;;0.10;0.10;;;29.10;55.70;;;;;;4997390;28;20053;-81
2022/07/29 10:10:38;;;;;;;0.40;0.40;;;29.20;56.00;;;;;;5015011;28;20041;-80
2022/07/29 10:13:10;;;;;;;0.52;0.47;;;28.80;57.10;;;;;;5015027;28;20479;-80
2022/07/29 10:15:40;;;;;;;1.55;0.35;;;28.30;57.20;;;;;;5014891;28;20038;-80
2022/07/29 10:18:08;;;;;;;0.40;0.40;;;28.10;57.90;;;;;;4997351;28;20045;-80
2022/07/29 10:20:34;;;;;;;0.30;0.30;;;27.50;58.60;;;;;;5014809;28;20029;-80
2022/07/29 10:23:00;;;;;;;0.40;0.40;;;27.70;59.40;;;;;;5014657;28;20068;-80
2022/07/29 10:25:28;;;;;;;0.40;0.40;;;28.00;60.30;;;;;;4996154;28;20469;-80
2022/07/29 10:27:54;;;;;;;5.20;0.40;;;28.20;58.80;;;;;;5014396;28;20028;-80
2022/07/29 10:30:22;;;;;;;0.32;0.30;;;27.90;57.70;;;;;;4997076;28;20030;-80
2022/07/29 10:32:51;;;;;;;0.93;0.50;;;27.40;59.00;;;;;;4997001;28;20486;-80
2022/07/29 10:35:17;;;;;;;0.30;0.30;;;26.70;58.30;;;;;;5014736;28;20478;-80
2022/07/29 10:38:11;;;;;;;0.43;0.20;;;26.60;61.60;;;;;;5014615;28;20030;-80
2022/07/29 10:43:46;;;;;;;;;;;26.90;59.20;;;;;;5014717;28;20083;-81
2022/07/29 10:46:13;;;;;;;0.70;0.68;;;27.10;61.80;;;;;;5013058;28;19909;-80
2022/07/29 10:49:09;;;;;;;0.47;0.20;;;27.00;60.10;;;;;;5013987;28;20044;-81
2022/07/29 10:52:04;;;;;;;0.30;0.30;;;27.00;60.20;;;;;;5014219;28;20076;-80
2022/07/29 10:54:35;;;;;;;0.30;0.30;;;26.00;61.50;;;;;;5014329;28;20030;-80
2022/07/29 10:57:25;;;;;;;0.25;0.25;;;25.60;63.80;;;;;;4996603;28;20022;-80
2022/07/29 11:00:11;;;;;;;2.47;0.45;;;25.30;64.10;;;;;;4996402;28;20549;-80
2022/07/29 11:02:40;;;;;;;0.17;0.15;;;25.00;64.30;;;;;;4996251;28;20018;-80
2022/07/29 11:05:08;;;;;;;0.75;0.75;;;25.00;64.00;;;;;;4996717;28;20076;-80
2022/07/29 11:07:35;;;;;;;0.17;0.17;;;24.80;62.70;;;;;;5013854;28;20026;-80
2022/07/29 11:10:13;;;;;;;4.28;1.23;;;25.00;64.30;;;;;;4996300;28;20582;-80
2022/07/29 11:12:38;;;;;;;0.20;0.20;;;24.80;62.80;;;;;;5013994;28;20049;-80
2022/07/29 11:15:12;;;;;;;0.30;0.30;;;24.50;61.20;;;;;;5013757;28;20018;-80
2022/07/29 11:17:56;;;;;;;0.30;0.30;;;24.40;62.40;;;;;;5011627;28;20046;-80
2022/07/29 11:20:45;;;;;;;0.63;0.60;;;24.20;62.10;;;;;;4996165;28;20030;-80
2022/07/29 11:23:27;;;;;;;1.75;0.40;;;24.00;62.60;;;;;;5013637;28;20018;-80
2022/07/29 11:26:14;;;;;;;0.50;0.50;;;26.90;63.90;;;;;;5013923;28;20034;-80
2022/07/29 11:28:49;;;;;;;0.03;0.03;;;23.70;62.20;;;;;;4996179;28;20585;-80
2022/07/29 11:31:18;;;;;;;8.30;0.30;;;23.80;63.60;;;;;;5013632;28;20057;-80
2022/07/29 11:33:44;;;;;;;6.30;1.80;;;23.70;64.10;;;;;;4996087;28;20482;-80
2022/07/29 11:36:11;;;;;;;0.45;0.45;;;23.60;65.10;;;;;;5013147;28;20026;-81
2022/07/29 11:38:38;;;;;;;0.20;0.20;;;23.40;65.60;;;;;;4995834;28;20509;-81
2022/07/29 11:41:26;;;;;;;0.30;0.30;;;23.20;69.30;;;;;;4996047;28;20100;-81
2022/07/29 11:43:59;;;;;;;0.63;0.40;;;22.90;73.90;;;;;;5013657;28;20368;-81
2022/07/29 11:46:46;;;;;;;0.40;0.40;;;22.40;92.90;;;;;;5013565;28;20046;-84
2022/07/29 11:49:12;;;;;;;0.28;0.28;;;22.20;99.90;;;;;;4996206;28;20064;-82
2022/07/29 11:51:38;;;;;;;1.60;0.63;;;22.00;99.90;;;;;;4996229;28;20057;-81
2022/07/29 11:54:05;;;;;;;0.75;0.50;;;21.70;99.90;;;;;;4995698;28;20382;-81
2022/07/29 11:56:38;;;;;;;0.52;0.52;;;21.50;99.90;;;;;;5013191;28;20018;-80
2022/07/29 11:59:06;;;;;;;5.15;0.63;;;21.40;99.90;;;;;;5013504;28;20117;-82
2022/07/29 12:01:32;;;;;;;0.38;0.38;;;21.30;99.90;;;;;;5013467;28;20049;-82
2022/07/29 12:04:07;;;;;;;2.38;0.60;;;21.30;99.90;;;;;;4995718;28;20056;-81
2022/07/29 12:06:34;;;;;;;0.38;0.38;;;21.20;99.90;;;;;;5013610;28;20084;-81
2022/07/29 12:09:00;;;;;;;0.45;0.30;;;21.20;99.90;;;;;;4995961;28;20032;-81
2022/07/29 12:11:26;;;;;;;0.50;0.50;;;21.20;99.90;;;;;;4996122;28;20030;-81
2022/07/29 12:13:53;;;;;;;0.93;0.45;;;21.50;99.90;;;;;;4995910;28;20072;-82
2022/07/29 12:16:20;;;;;;;0.47;0.47;;;21.50;99.90;;;;;;5013343;28;20061;-81
2022/07/29 12:19:02;;;;;;;0.47;0.40;;;21.50;99.90;;;;;;5013445;28;20026;-83
2022/07/29 12:21:47;;;;;;;0.20;0.20;;;21.40;99.90;;;;;;5013250;28;20024;-80
2022/07/29 12:24:13;;;;;;;0.52;0.45;;;21.30;99.90;;;;;;4995696;28;20034;-81
2022/07/29 12:26:57;;;;;;;0.40;0.40;;;21.20;99.90;;;;;;4995694;28;20096;-80
2022/07/29 12:29:24;;;;;;;0.30;0.30;;;21.20;99.90;;;;;;4995432;28;20120;-80
2022/07/29 12:31:54;;;;;;;2.33;0.55;;;21.30;99.90;;;;;;4995221;28;20045;-80
2022/07/29 12:34:22;;;;;;;1.10;0.47;;;21.40;99.90;;;;;;4995198;28;20026;-80
2022/07/29 12:36:48;;;;;;;0.20;0.20;;;21.60;99.90;;;;;;5013073;28;20510;-79
2022/07/29 12:39:16;;;;;;;2.80;0.63;;;21.60;99.90;;;;;;4995484;28;20517;-80
2022/07/29 12:41:43;;;;;;;0.43;0.43;;;21.50;99.90;;;;;;4995349;28;20065;-80
2022/07/29 12:44:09;;;;;;;1.95;0.22;;;21.50;99.90;;;;;;4995307;28;20355;-79
2022/07/29 12:46:34;;;;;;;2.58;0.60;;;21.80;99.90;;;;;;5012903;28;20056;-80
2022/07/29 12:49:00;;;;;;;8.02;1.05;;;21.90;99.90;;;;;;5014570;28;20057;-79
2022/07/29 12:51:31;;;;;;;0.20;0.20;;;22.00;99.90;;;;;;5016350;28;20024;-80
2022/07/29 12:54:06;;;;;;;0.30;0.30;;;21.90;99.90;;;;;;4998643;28;20038;-80
2022/07/29 12:56:32;;;;;;;2.75;0.98;;;21.90;99.90;;;;;;5016275;28;20026;-79
2022/07/29 12:58:58;;;;;;;1.25;0.30;;;21.90;99.90;;;;;;4998792;28;20022;-80
2022/07/29 13:01:24;;;;;;;1.35;0.30;;;22.10;99.90;;;;;;5016400;28;20044;-80
2022/07/29 13:03:59;;;;;;;0.10;0.10;;;22.40;99.90;;;;;;5016453;28;20375;-79